Time;durP1;ratioP1;P1;durP2;ratioP2;P2;SDS_P1;SDS_P2;PMS_P1;PMS_P2;Temp;Humidity;BMP_temperature;BMP_pressure;BME280_temperature;BME280_humidity;BME280_pressure;Samples;Min_cycle;Max_cycle;Signal;HPM_P1;HPM_P2
2021/12/15 00:00:05;;;;;;;7.27;4.97;;;;;;;6.51;95.06;97499.03;5077680;28;20204;-68
2021/12/15 00:02:32;;;;;;;12.77;4.73;;;;;;;6.28;94.68;97498.22;5076756;28;20224;-69
2021/12/15 00:04:58;;;;;;;20.93;5.40;;;;;;;6.16;94.85;97491.34;5077396;28;20208;-68
2021/12/15 00:07:26;;;;;;;19.37;4.87;;;;;;;6.40;95.54;97497.25;5078465;28;20214;-68
2021/12/15 00:09:54;;;;;;;9.47;5.27;;;;;;;6.49;94.89;97507.00;5078124;28;20249;-68
2021/12/15 00:12:22;;;;;;;11.17;4.27;;;;;;;6.44;94.55;97497.84;5073916;28;20226;-68
2021/12/15 00:14:49;;;;;;;13.53;4.47;;;;;;;6.46;93.80;97507.22;5077364;28;20207;-68
2021/12/15 00:17:16;;;;;;;16.87;6.67;;;;;;;6.46;94.34;97499.38;5076765;28;20714;-69
2021/12/15 00:19:42;;;;;;;9.77;4.57;;;;;;;6.28;94.96;97503.44;5077662;28;20203;-69
2021/12/15 00:22:09;;;;;;;21.43;8.03;;;;;;;6.22;95.39;97496.09;5076380;28;20850;-68
2021/12/15 00:24:36;;;;;;;13.97;5.30;;;;;;;6.14;95.89;97501.06;5077233;28;20213;-68
2021/12/15 00:27:04;;;;;;;7.10;3.80;;;;;;;6.43;95.47;97498.78;5077158;28;20664;-68
2021/12/15 00:29:31;;;;;;;18.60;4.57;;;;;;;6.42;94.88;97500.56;5077044;28;20218;-68
2021/12/15 00:31:58;;;;;;;14.23;5.00;;;;;;;6.20;95.17;97505.84;5076857;28;20234;-68
2021/12/15 00:34:24;;;;;;;14.33;4.47;;;;;;;6.24;95.21;97507.25;5076749;28;20208;-68
2021/12/15 00:36:51;;;;;;;14.63;6.20;;;;;;;6.34;94.58;97507.34;5076815;28;20223;-68
2021/12/15 00:39:21;;;;;;;10.07;3.33;;;;;;;6.62;94.63;97506.84;5076894;28;20671;-68
2021/12/15 00:41:48;;;;;;;16.97;5.87;;;;;;;6.42;95.00;97510.22;5077125;28;20308;-68
2021/12/15 00:44:17;;;;;;;12.63;4.63;;;;;;;6.62;94.63;97509.47;5076425;28;20664;-68
2021/12/15 00:46:45;;;;;;;9.40;4.00;;;;;;;6.48;95.38;97513.19;5076982;28;20852;-68
2021/12/15 00:49:12;;;;;;;10.53;4.87;;;;;;;6.28;94.75;97511.28;5077151;28;20195;-68
2021/12/15 00:51:39;;;;;;;9.93;4.97;;;;;;;6.41;94.98;97514.59;5077103;28;20231;-68
2021/12/15 00:54:08;;;;;;;17.23;5.97;;;;;;;6.59;94.42;97510.53;5075783;28;20210;-69
2021/12/15 00:56:35;;;;;;;15.33;5.33;;;;;;;6.18;95.37;97506.91;5076547;28;21034;-69
2021/12/15 00:59:02;;;;;;;9.23;3.47;;;;;;;6.18;96.15;97517.38;5076440;28;20211;-69
2021/12/15 01:01:30;;;;;;;10.37;4.30;;;;;;;6.18;96.77;97515.56;5076853;28;20223;-69
2021/12/15 01:03:57;;;;;;;10.53;4.13;;;;;;;6.07;96.56;97515.59;5075711;28;20688;-69
2021/12/15 01:06:23;;;;;;;11.83;5.83;;;;;;;6.24;95.25;97509.88;5077327;28;20215;-69
2021/12/15 01:08:56;;;;;;;11.20;4.67;;;;;;;6.43;95.64;97517.09;5076564;28;20230;-69
2021/12/15 01:11:30;;;;;;;10.40;4.23;;;;;;;6.25;96.07;97516.78;5076646;28;20231;-69
2021/12/15 01:19:51;;;;;;;13.20;4.53;;;;;;;6.51;94.87;97514.72;5076381;28;20214;-69
2021/12/15 01:22:23;;;;;;;10.73;4.03;;;;;;;6.55;95.49;97519.59;5076583;28;20341;-69
2021/12/15 01:24:50;;;;;;;11.60;4.20;;;;;;;6.40;94.97;97526.06;5076322;28;20204;-69
2021/12/15 01:27:17;;;;;;;16.93;4.63;;;;;;;6.34;94.28;97528.28;5076874;28;20207;-69
2021/12/15 01:29:44;;;;;;;11.50;4.20;;;;;;;6.39;93.85;97531.41;5081325;28;20204;-68
2021/12/15 01:32:11;;;;;;;14.87;5.80;;;;;;;6.38;95.22;97525.34;5079528;28;20232;-69
2021/12/15 01:34:38;;;;;;;29.37;5.17;;;;;;;6.29;94.69;97536.53;5079943;28;20414;-69
2021/12/15 01:37:05;;;;;;;8.10;4.47;;;;;;;6.26;94.61;97530.69;5080597;28;20227;-69
2021/12/15 01:39:31;;;;;;;9.43;3.93;;;;;;;6.36;94.47;97532.47;5080400;28;20208;-69
2021/12/15 01:41:58;;;;;;;13.27;5.83;;;;;;;6.20;94.64;97536.44;5079842;28;20230;-69
2021/12/15 01:47:13;;;;;;;8.73;3.70;;;;;;;6.41;94.73;97546.03;5080828;28;20222;-69
2021/12/15 01:49:44;;;;;;;11.57;5.63;;;;;;;6.49;94.80;97540.19;5079975;28;20204;-69
2021/12/15 01:52:15;;;;;;;6.57;2.47;;;;;;;6.37;95.31;97539.38;5079822;28;20227;-69
2021/12/15 01:54:45;;;;;;;13.30;4.67;;;;;;;6.34;96.09;97539.63;5080060;28;20688;-69
2021/12/15 01:57:13;;;;;;;10.83;4.30;;;;;;;6.32;96.37;97541.50;5079649;28;20230;-69
2021/12/15 01:59:40;;;;;;;8.70;4.40;;;;;;;6.40;94.96;97541.78;5079835;28;20208;-69
2021/12/15 02:02:07;;;;;;;19.23;4.40;;;;;;;6.48;94.68;97541.16;5079697;28;20314;-69
2021/12/15 02:04:35;;;;;;;8.23;3.50;;;;;;;6.58;94.66;97539.47;5079648;28;20207;-69
2021/12/15 02:07:04;;;;;;;14.13;4.17;;;;;;;6.52;94.65;97546.03;5079697;28;20196;-69
2021/12/15 02:12:25;;;;;;;6.57;3.47;;;;;;;6.54;95.34;97544.09;5059884;28;20250;-69
2021/12/15 02:14:52;;;;;;;7.20;4.37;;;;;;;6.34;95.81;97544.00;5079704;28;20265;-70
2021/12/15 02:17:20;;;;;;;9.63;5.27;;;;;;;6.32;96.00;97536.28;5079509;28;20705;-70
2021/12/15 02:19:48;;;;;;;8.87;4.60;;;;;;;6.40;96.41;97533.06;5079192;28;20214;-70
2021/12/15 02:22:16;;;;;;;6.27;3.60;;;;;;;6.43;96.42;97527.56;5079057;28;20293;-69
2021/12/15 02:24:44;;;;;;;16.23;2.90;;;;;;;6.35;95.60;97530.81;5080099;28;20210;-69
2021/12/15 02:27:13;;;;;;;9.87;3.70;;;;;;;6.18;95.25;97528.66;5079247;28;20235;-70
2021/12/15 02:29:43;;;;;;;9.33;4.50;;;;;;;6.26;95.50;97531.53;5079157;28;20195;-69
2021/12/15 02:32:18;;;;;;;20.07;5.90;;;;;;;6.20;94.75;97526.78;5079662;28;20223;-70
2021/12/15 02:35:07;;;;;;;8.07;3.87;;;;;;;6.36;94.85;97531.66;5079180;28;20204;-69
2021/12/15 02:37:34;;;;;;;8.17;3.63;;;;;;;6.60;93.99;97525.31;5078427;28;20227;-69
2021/12/15 02:40:06;;;;;;;8.07;3.80;;;;;;;6.52;94.96;97526.84;5078828;28;20227;-69
2021/12/15 02:42:36;;;;;;;9.60;4.53;;;;;;;6.62;94.81;97522.56;5078420;28;20918;-69
2021/12/15 02:45:05;;;;;;;13.17;4.20;;;;;;;6.49;94.92;97525.34;5078663;28;20630;-69
2021/12/15 02:47:33;;;;;;;10.33;3.77;;;;;;;6.46;95.46;97528.19;5079443;28;20200;-69
2021/12/15 02:50:01;;;;;;;10.00;4.10;;;;;;;6.40;94.95;97528.69;5079201;28;20199;-69
2021/12/15 02:52:28;;;;;;;11.17;4.50;;;;;;;6.41;94.97;97529.50;5078092;28;20223;-69
2021/12/15 02:54:56;;;;;;;10.10;4.80;;;;;;;6.57;94.87;97530.78;5078708;28;20200;-69
2021/12/15 02:57:22;;;;;;;11.67;3.80;;;;;;;6.23;95.46;97531.75;5078782;28;20224;-69
2021/12/15 03:00:00;;;;;;;12.57;5.27;;;;;;;6.57;95.58;97528.19;5078742;28;20206;-69
2021/12/15 03:05:21;;;;;;;6.33;3.80;;;;;;;6.04;96.35;97529.88;5078609;28;20248;-69
2021/12/15 03:07:59;;;;;;;11.77;5.57;;;;;;;6.39;96.31;97531.41;5078269;28;20211;-69
2021/12/15 03:15:57;;;;;;;9.60;4.37;;;;;;;6.57;94.86;97524.69;5078246;28;20693;-69
2021/12/15 03:18:25;;;;;;;12.80;3.67;;;;;;;6.49;95.27;97529.72;5078282;28;20614;-69
2021/12/15 03:20:55;;;;;;;8.87;4.97;;;;;;;6.40;95.63;97523.44;5078791;28;20608;-69
2021/12/15 03:23:27;;;;;;;9.83;3.67;;;;;;;6.39;95.80;97526.16;5077348;28;20226;-69
2021/12/15 03:25:56;;;;;;;7.87;3.67;;;;;;;6.25;96.78;97524.63;5067521;28;20691;-69
2021/12/15 03:34:09;;;;;;;8.53;4.10;;;;;;;6.33;95.07;97526.66;5036117;28;20207;-69
2021/12/15 03:37:08;;;;;;;7.80;3.73;;;;;;;6.57;95.20;97524.69;5074673;28;20720;-69
2021/12/15 03:39:40;;;;;;;8.97;3.87;;;;;;;6.39;95.88;97532.25;5077662;28;20594;-69
2021/12/15 03:42:10;;;;;;;13.93;4.77;;;;;;;6.41;95.98;97540.78;5077409;28;20635;-69
2021/12/15 03:44:40;;;;;;;8.13;3.97;;;;;;;6.40;96.15;97538.31;5078310;28;20212;-69
2021/12/15 03:47:17;;;;;;;5.00;3.20;;;;;;;6.31;95.59;97539.88;5077471;28;20210;-69
2021/12/15 03:49:44;;;;;;;10.07;4.20;;;;;;;6.24;95.44;97536.06;5077597;28;20210;-69
2021/12/15 03:52:12;;;;;;;13.77;3.87;;;;;;;6.56;94.83;97542.22;5077639;28;20228;-69
2021/12/15 03:54:39;;;;;;;11.10;4.47;;;;;;;6.34;94.71;97547.47;5078045;28;20234;-69
2021/12/15 03:57:06;;;;;;;6.20;2.77;;;;;;;6.42;94.43;97545.09;5076895;28;20227;-69
2021/12/15 03:59:35;;;;;;;9.93;4.47;;;;;;;6.42;95.76;97542.47;5077601;28;20200;-69
2021/12/15 04:02:02;;;;;;;4.43;2.47;;;;;;;6.26;95.84;97541.16;5077772;28;20318;-69
2021/12/15 04:04:28;;;;;;;18.27;5.77;;;;;;;6.07;96.14;97541.75;5076876;28;20577;-69
2021/12/15 04:06:55;;;;;;;9.63;5.00;;;;;;;6.19;96.25;97546.03;5077246;28;20196;-69
2021/12/15 04:09:21;;;;;;;13.23;5.20;;;;;;;6.23;95.22;97547.47;5077745;28;21007;-69
2021/12/15 04:11:48;;;;;;;6.60;2.73;;;;;;;6.11;95.73;97547.59;5077230;28;20703;-69
2021/12/15 04:14:21;;;;;;;8.00;2.93;;;;;;;6.51;94.73;97546.16;5077178;28;20203;-69
2021/12/15 04:17:00;;;;;;;15.50;3.27;;;;;;;6.52;94.13;97547.78;5077574;28;20220;-69
2021/12/15 04:19:27;;;;;;;9.57;3.10;;;;;;;6.34;94.62;97534.38;5077179;28;20313;-69
2021/12/15 04:21:54;;;;;;;5.60;4.10;;;;;;;6.35;94.43;97536.06;5076825;28;20227;-69
2021/12/15 04:24:23;;;;;;;7.83;3.37;;;;;;;6.20;94.19;97537.25;5076411;28;20687;-69
2021/12/15 04:26:51;;;;;;;6.40;2.33;;;;;;;6.39;93.99;97545.34;5074444;28;20245;-69
2021/12/15 04:29:18;;;;;;;12.27;3.60;;;;;;;6.29;93.94;97546.19;5077110;28;20211;-69
2021/12/15 04:31:49;;;;;;;8.43;3.70;;;;;;;6.31;94.58;97552.97;5077018;28;20775;-69
2021/12/15 04:34:17;;;;;;;8.40;3.70;;;;;;;6.43;94.03;97551.13;5076179;28;20211;-69
2021/12/15 04:36:47;;;;;;;9.57;3.10;;;;;;;6.45;94.39;97552.69;5076975;28;20227;-69
2021/12/15 04:39:16;;;;;;;5.60;2.70;;;;;;;6.52;94.25;97550.41;5076922;28;20206;-69
2021/12/15 04:41:48;;;;;;;12.20;4.30;;;;;;;6.35;93.80;97554.38;5077479;28;20228;-69
2021/12/15 04:44:16;;;;;;;11.00;3.97;;;;;;;6.31;94.45;97550.34;5076132;28;20797;-69
2021/12/15 04:46:46;;;;;;;7.93;3.57;;;;;;;6.38;95.11;97556.75;5076944;28;20210;-69
2021/12/15 04:49:17;;;;;;;5.97;3.30;;;;;;;6.47;94.21;97553.41;5077615;28;20196;-69
2021/12/15 04:51:47;;;;;;;6.80;3.17;;;;;;;6.47;94.17;97556.03;5076553;28;20590;-69
2021/12/15 04:54:14;;;;;;;5.40;2.97;;;;;;;6.13;94.72;97556.97;5075939;28;20589;-69
2021/12/15 04:56:40;;;;;;;6.37;2.17;;;;;;;6.05;95.02;97554.13;5077530;28;20223;-69
2021/12/15 04:59:07;;;;;;;4.10;2.53;;;;;;;6.15;93.54;97559.50;5076958;28;20583;-69
2021/12/15 05:01:33;;;;;;;9.30;2.93;;;;;;;6.15;93.69;97555.09;5076401;28;20219;-69
2021/12/15 05:04:00;;;;;;;12.47;3.83;;;;;;;6.25;93.34;97557.81;5075684;28;20204;-69
2021/12/15 05:06:26;;;;;;;4.70;3.10;;;;;;;6.20;93.25;97566.03;5076878;28;20749;-69
2021/12/15 05:08:55;;;;;;;5.30;2.80;;;;;;;6.36;94.21;97566.50;5076644;28;20207;-69
2021/12/15 05:11:21;;;;;;;8.40;3.20;;;;;;;5.99;94.56;97563.41;5076076;28;20228;-69
2021/12/15 05:13:48;;;;;;;6.77;2.77;;;;;;;5.87;95.30;97567.78;5075619;28;20212;-69
2021/12/15 05:16:16;;;;;;;6.33;2.83;;;;;;;5.93;95.20;97563.84;5075498;28;20206;-69
2021/12/15 05:18:43;;;;;;;6.97;2.97;;;;;;;5.86;95.88;97560.88;5075627;28;20506;-69
2021/12/15 05:21:11;;;;;;;10.93;3.73;;;;;;;6.11;95.13;97569.34;5075844;28;20862;-69
2021/12/15 05:23:38;;;;;;;4.43;2.17;;;;;;;5.97;95.09;97571.38;5075350;28;20241;-69
2021/12/15 05:26:06;;;;;;;5.07;3.27;;;;;;;6.17;95.25;97576.75;5072690;28;20210;-69
2021/12/15 05:28:32;;;;;;;4.90;2.90;;;;;;;6.10;94.19;97575.53;5075956;28;20211;-69
2021/12/15 05:30:59;;;;;;;3.70;3.07;;;;;;;6.03;94.72;97583.16;5076073;28;20208;-69
2021/12/15 05:33:26;;;;;;;5.67;2.90;;;;;;;6.08;95.02;97581.84;5075220;28;20668;-69
2021/12/15 05:35:55;;;;;;;4.77;2.77;;;;;;;6.24;94.63;97579.72;5076543;28;20212;-69
2021/12/15 05:38:22;;;;;;;11.27;3.37;;;;;;;5.93;94.91;97587.41;5076548;28;20231;-69
2021/12/15 05:40:49;;;;;;;7.13;2.70;;;;;;;5.92;95.66;97590.97;5076096;28;20216;-69
2021/12/15 05:43:16;;;;;;;6.27;3.50;;;;;;;6.31;95.11;97587.00;5076039;28;20231;-69
2021/12/15 05:45:44;;;;;;;5.70;3.93;;;;;;;6.26;93.87;97591.75;5076123;28;20672;-69
2021/12/15 05:48:16;;;;;;;10.97;4.20;;;;;;;6.47;94.00;97592.69;5076251;28;20205;-69
2021/12/15 05:50:44;;;;;;;8.47;3.17;;;;;;;6.35;93.37;97590.19;5075817;28;20208;-69
2021/12/15 05:53:11;;;;;;;15.40;4.33;;;;;;;6.14;94.46;97599.69;5075075;28;20231;-69
2021/12/15 05:55:39;;;;;;;6.20;3.70;;;;;;;6.29;93.91;97609.81;5076238;28;20207;-69
2021/12/15 05:58:06;;;;;;;3.33;2.50;;;;;;;6.30;93.41;97608.88;5076197;28;20235;-69
2021/12/15 06:00:37;;;;;;;14.70;3.77;;;;;;;6.55;93.56;97605.19;5076268;28;20208;-69
2021/12/15 06:03:05;;;;;;;12.13;4.57;;;;;;;6.41;93.61;97603.63;5075614;28;20242;-69
2021/12/15 06:05:33;;;;;;;13.33;4.77;;;;;;;6.30;93.48;97611.50;5075645;28;20207;-69
2021/12/15 06:07:59;;;;;;;6.53;4.03;;;;;;;6.08;94.40;97614.09;5075886;28;20200;-69
2021/12/15 06:10:29;;;;;;;7.53;2.90;;;;;;;6.41;93.98;97606.25;5075640;28;20200;-69
2021/12/15 06:12:58;;;;;;;6.60;2.43;;;;;;;6.12;94.96;97607.66;5075125;28;20683;-69
2021/12/15 06:15:26;;;;;;;10.37;3.77;;;;;;;6.15;95.19;97612.66;5078468;28;20203;-69
2021/12/15 06:17:59;;;;;;;6.33;2.63;;;;;;;6.47;93.48;97608.41;5079812;28;20223;-69
2021/12/15 06:20:26;;;;;;;5.63;2.23;;;;;;;6.13;94.26;97616.34;5079860;28;20206;-69
2021/12/15 06:22:54;;;;;;;6.53;3.00;;;;;;;6.04;94.67;97613.59;5079061;28;20599;-69
2021/12/15 06:25:21;;;;;;;6.20;3.20;;;;;;;6.09;94.70;97613.13;5079423;28;20204;-69
2021/12/15 06:27:48;;;;;;;7.20;3.50;;;;;;;6.16;94.39;97613.47;5077464;28;20204;-69
2021/12/15 06:30:14;;;;;;;8.03;4.63;;;;;;;6.04;94.46;97612.63;5079473;28;20223;-71
2021/12/15 06:32:42;;;;;;;3.47;2.57;;;;;;;6.18;94.67;97622.88;5078897;28;20227;-69
2021/12/15 06:35:11;;;;;;;7.97;3.10;;;;;;;6.24;94.68;97634.69;5079150;28;20200;-69
2021/12/15 06:37:38;;;;;;;7.47;3.70;;;;;;;6.14;93.82;97629.31;5078622;28;20223;-69
2021/12/15 06:40:08;;;;;;;4.00;2.87;;;;;;;6.38;93.25;97630.06;5079613;28;20200;-69
2021/12/15 06:42:34;;;;;;;6.70;3.57;;;;;;;6.14;93.62;97631.09;5079352;28;20224;-69
2021/12/15 06:45:01;;;;;;;5.10;2.50;;;;;;;6.13;93.51;97635.47;5078731;28;20907;-69
2021/12/15 06:57:30;;;;;;;4.93;3.30;;;;;;;6.13;93.49;97637.28;5078948;28;21139;-69
2021/12/15 06:58:43;;;;;;;8.03;3.03;;;;;;;5.75;94.97;97655.00;5078042;28;20284;-69
2021/12/15 07:01:13;;;;;;;6.40;3.27;;;;;;;6.05;93.93;97656.16;5078505;28;20646;-69
2021/12/15 07:03:40;;;;;;;9.77;3.17;;;;;;;5.96;94.48;97661.28;5078363;28;20204;-69
2021/12/15 07:06:08;;;;;;;8.27;3.23;;;;;;;6.16;94.94;97661.44;5079254;28;20204;-69
2021/12/15 07:08:36;;;;;;;9.47;4.63;;;;;;;5.99;94.01;97673.28;5078963;28;20694;-69
2021/12/15 07:11:04;;;;;;;15.87;4.43;;;;;;;6.07;94.04;97671.75;5079156;28;20208;-69
2021/12/15 07:13:31;;;;;;;6.67;3.90;;;;;;;6.08;94.33;97669.03;5078319;28;20211;-69
2021/12/15 07:16:04;;;;;;;11.73;3.43;;;;;;;6.23;94.05;97673.09;5077919;28;20683;-69
2021/12/15 07:18:41;;;;;;;5.03;2.53;;;;;;;6.28;94.61;97678.00;5078934;28;20220;-69
2021/12/15 07:21:16;;;;;;;12.80;2.47;;;;;;;6.26;95.00;97677.28;5078806;28;20207;-69
2021/12/15 07:23:44;;;;;;;5.60;3.00;;;;;;;6.08;94.55;97692.59;5078071;28;20203;-69
2021/12/15 07:26:10;;;;;;;9.03;3.60;;;;;;;6.04;93.92;97686.88;5076121;28;21134;-69
2021/12/15 07:28:37;;;;;;;11.20;5.03;;;;;;;6.01;94.70;97687.94;5077976;28;20199;-69
2021/12/15 07:31:04;;;;;;;4.27;2.73;;;;;;;5.89;94.89;97695.84;5077418;28;20211;-69
2021/12/15 07:33:31;;;;;;;4.00;2.10;;;;;;;6.10;94.21;97698.53;5077147;28;21254;-69
2021/12/15 07:35:58;;;;;;;13.23;4.30;;;;;;;6.00;94.66;97701.13;5077975;28;20204;-69
2021/12/15 07:38:26;;;;;;;13.20;4.03;;;;;;;6.21;94.67;97702.97;5077318;28;20223;-69
2021/12/15 07:40:53;;;;;;;7.23;3.00;;;;;;;6.06;94.65;97702.31;5077591;28;20204;-69
2021/12/15 07:43:25;;;;;;;7.20;2.63;;;;;;;6.17;94.03;97701.53;5077747;28;20226;-69
2021/12/15 07:45:56;;;;;;;11.07;5.23;;;;;;;6.39;95.11;97698.94;5077423;28;20293;-69
2021/12/15 07:48:26;;;;;;;6.47;4.37;;;;;;;6.41;94.81;97705.75;5077338;28;20206;-69
2021/12/15 07:50:56;;;;;;;10.80;2.87;;;;;;;6.43;94.87;97703.84;5077669;28;20204;-69
2021/12/15 07:53:23;;;;;;;4.80;3.23;;;;;;;6.17;95.40;97710.22;5077678;28;20230;-69
2021/12/15 07:55:51;;;;;;;6.40;3.40;;;;;;;6.38;95.71;97695.50;5077470;28;20561;-69
2021/12/15 07:58:18;;;;;;;9.37;4.90;;;;;;;6.25;95.63;97704.38;5076762;28;20235;-69
2021/12/15 08:00:47;;;;;;;10.93;4.47;;;;;;;6.17;96.38;97712.84;5077068;28;20679;-69
2021/12/15 08:03:13;;;;;;;8.00;4.13;;;;;;;6.15;96.06;97708.66;5076056;28;20224;-69
2021/12/15 08:05:41;;;;;;;13.50;4.97;;;;;;;6.18;96.08;97708.44;5077010;28;20235;-69
2021/12/15 08:08:08;;;;;;;9.43;3.80;;;;;;;6.14;95.73;97715.66;5076005;28;20195;-69
2021/12/15 08:10:35;;;;;;;19.53;4.90;;;;;;;6.29;96.06;97717.16;5075396;28;20592;-69
2021/12/15 08:13:04;;;;;;;7.37;4.07;;;;;;;6.43;95.77;97709.09;5075748;28;20227;-69
2021/12/15 08:15:30;;;;;;;7.80;3.63;;;;;;;6.41;94.52;97715.38;5077094;28;20687;-69
2021/12/15 08:17:57;;;;;;;13.63;3.23;;;;;;;6.38;94.77;97710.41;5076314;28;20707;-69
2021/12/15 08:20:26;;;;;;;16.77;4.10;;;;;;;6.55;95.18;97715.19;5076549;28;20204;-69
2021/12/15 08:22:53;;;;;;;13.23;3.23;;;;;;;6.53;94.44;97707.44;5075863;28;20235;-69
2021/12/15 08:25:21;;;;;;;5.17;3.33;;;;;;;6.58;94.70;97709.69;5076511;28;20458;-69
2021/12/15 08:27:49;;;;;;;14.50;5.77;;;;;;;6.53;94.96;97717.91;5074304;28;20211;-69
2021/12/15 08:30:20;;;;;;;9.37;3.93;;;;;;;6.67;95.31;97713.28;5076286;28;20211;-69
2021/12/15 08:32:48;;;;;;;16.93;5.30;;;;;;;6.59;94.87;97717.44;5076385;28;20318;-69
2021/12/15 08:35:15;;;;;;;13.80;5.53;;;;;;;6.52;94.76;97723.25;5076352;28;20204;-69
2021/12/15 08:37:42;;;;;;;13.50;4.50;;;;;;;6.55;94.45;97723.84;5075688;28;20218;-69
2021/12/15 08:40:09;;;;;;;11.37;3.20;;;;;;;6.61;94.38;97726.03;5076411;28;20568;-69
2021/12/15 08:42:36;;;;;;;10.53;2.70;;;;;;;6.48;94.27;97727.06;5075567;28;20478;-69
2021/12/15 08:45:03;;;;;;;5.67;3.43;;;;;;;6.58;94.98;97725.41;5076066;28;20206;-69
2021/12/15 08:47:31;;;;;;;11.63;3.63;;;;;;;6.69;94.57;97728.88;5076964;28;20722;-69
2021/12/15 08:49:58;;;;;;;6.77;3.63;;;;;;;6.37;95.65;97733.09;5076860;28;20211;-69
2021/12/15 08:52:24;;;;;;;9.40;3.37;;;;;;;6.38;94.65;97734.78;5076063;28;20278;-69
2021/12/15 08:54:51;;;;;;;11.67;3.90;;;;;;;6.25;95.48;97744.50;5077391;28;20206;-69
2021/12/15 08:57:18;;;;;;;9.53;3.83;;;;;;;6.41;94.64;97737.16;5076542;28;20204;-69
2021/12/15 08:59:44;;;;;;;5.17;2.27;;;;;;;6.52;94.58;97737.19;5076723;28;20715;-69
2021/12/15 09:02:12;;;;;;;6.80;3.27;;;;;;;6.80;93.97;97732.34;5076393;28;20223;-69
2021/12/15 09:04:40;;;;;;;8.30;4.00;;;;;;;6.91;94.16;97723.66;5076926;28;20200;-69
2021/12/15 09:07:06;;;;;;;12.63;4.03;;;;;;;6.70;94.54;97725.31;5076019;28;20210;-69
2021/12/15 09:09:33;;;;;;;11.67;5.13;;;;;;;6.64;94.42;97724.94;5076783;28;20200;-69
2021/12/15 09:12:00;;;;;;;25.37;7.67;;;;;;;6.77;94.05;97731.75;5076836;28;20410;-69
2021/12/15 09:14:27;;;;;;;17.63;6.43;;;;;;;6.70;94.50;97725.31;5075910;28;20208;-69
2021/12/15 09:16:55;;;;;;;10.33;4.27;;;;;;;6.94;94.05;97739.97;5076532;28;20204;-69
2021/12/15 09:19:22;;;;;;;12.87;6.73;;;;;;;6.84;94.47;97738.19;5076693;28;20659;-69
2021/12/15 09:21:52;;;;;;;14.70;5.07;;;;;;;6.85;94.92;97734.63;5076508;28;20227;-69
2021/12/15 09:24:20;;;;;;;15.97;6.47;;;;;;;6.99;94.58;97737.84;5075866;28;20207;-69
2021/12/15 09:26:47;;;;;;;12.00;4.30;;;;;;;6.65;94.95;97744.97;5073409;28;20204;-69
2021/12/15 09:29:13;;;;;;;11.33;4.47;;;;;;;6.64;94.92;97741.50;5076777;28;20196;-68
2021/12/15 09:31:40;;;;;;;6.00;3.87;;;;;;;6.67;94.92;97739.47;5076380;28;20227;-68
2021/12/15 09:34:08;;;;;;;8.27;3.33;;;;;;;6.81;94.84;97738.41;5075756;28;20199;-69
2021/12/15 09:36:35;;;;;;;7.90;3.00;;;;;;;6.76;95.45;97737.94;5076486;28;20295;-69
2021/12/15 09:39:07;;;;;;;6.07;3.40;;;;;;;7.01;95.07;97740.34;5075575;28;20223;-69
2021/12/15 09:41:34;;;;;;;6.10;2.77;;;;;;;6.73;94.98;97732.94;5076519;28;20219;-69
2021/12/15 09:44:06;;;;;;;7.90;2.97;;;;;;;6.71;95.10;97734.84;5075907;28;20214;-69
2021/12/15 09:46:40;;;;;;;8.73;4.07;;;;;;;6.67;94.83;97739.47;5076220;28;20208;-69
2021/12/15 09:57:28;;;;;;;8.30;3.57;;;;;;;6.98;94.20;97745.81;5042493;28;20330;-69
2021/12/15 10:02:59;;;;;;;5.80;2.40;;;;;;;7.16;94.43;97736.53;5079506;28;20254;-69
2021/12/15 10:05:38;;;;;;;7.57;3.60;;;;;;;7.08;94.21;97744.16;5079986;28;20987;-69
2021/12/15 10:19:26;;;;;;;8.07;3.67;;;;;;;7.04;94.31;97733.06;5079359;28;20274;-69
2021/12/15 10:22:04;;;;;;;5.00;3.03;;;;;;;7.23;94.15;97733.31;5079989;28;20234;-69
2021/12/15 10:24:34;;;;;;;9.47;3.53;;;;;;;7.18;93.45;97724.97;5079512;28;20369;-69
2021/12/15 10:27:05;;;;;;;6.30;3.93;;;;;;;7.09;95.27;97719.59;5079494;28;20215;-69
2021/12/15 10:29:32;;;;;;;9.87;3.83;;;;;;;6.89;94.90;97725.56;5080094;28;21056;-69
2021/12/15 10:32:01;;;;;;;6.63;3.07;;;;;;;7.07;94.38;97724.13;5079694;28;20234;-69
2021/12/15 10:34:29;;;;;;;6.30;3.83;;;;;;;7.04;94.80;97726.97;5078656;28;20208;-69
2021/12/15 12:06:33;;;;;;;1.57;1.47;;;;;;;6.03;100.00;97669.50;5095448;27;20498;-68
2021/12/15 12:09:00;;;;;;;4.03;2.27;;;;;;;6.20;100.00;97668.09;5094046;28;20199;-68
2021/12/15 12:11:28;;;;;;;11.67;4.83;;;;;;;6.58;100.00;97666.03;5094552;28;20233;-68
2021/12/15 12:13:59;;;;;;;6.03;3.27;;;;;;;6.72;100.00;97665.75;5093922;28;20313;-69
2021/12/15 12:16:25;;;;;;;8.17;3.10;;;;;;;6.89;100.00;97660.88;5094599;28;20203;-69
2021/12/15 12:18:53;;;;;;;7.40;3.33;;;;;;;7.03;100.00;97654.56;5094255;28;20210;-69
2021/12/15 12:21:20;;;;;;;3.77;1.90;;;;;;;8.12;100.00;97641.03;5098082;28;20199;-69
2021/12/15 12:23:49;;;;;;;10.00;3.20;;;;;;;9.43;100.00;97647.84;5100813;28;20207;-69
2021/12/15 12:26:19;;;;;;;6.67;3.83;;;;;;;10.26;96.77;97637.50;5100615;28;20215;-69
2021/12/15 12:28:46;;;;;;;9.00;3.77;;;;;;;10.68;90.05;97636.13;5099788;28;20203;-69
2021/12/15 12:31:17;;;;;;;12.37;5.43;;;;;;;10.03;83.47;97636.16;5095485;28;20826;-69
2021/12/15 12:33:44;;;;;;;8.60;4.10;;;;;;;9.34;84.87;97648.66;5093418;28;20203;-69
2021/12/15 12:36:13;;;;;;;9.30;3.20;;;;;;;8.72;88.59;97655.94;5094069;28;20210;-69
2021/12/15 12:38:42;;;;;;;7.33;2.63;;;;;;;8.10;91.66;97656.09;5094265;28;20207;-69
2021/12/15 12:41:13;;;;;;;4.83;2.07;;;;;;;8.15;91.39;97653.97;5093634;28;20226;-69
2021/12/15 12:43:43;;;;;;;8.03;3.43;;;;;;;7.69;93.08;97648.19;5093275;28;20207;-69
2021/12/15 12:46:19;;;;;;;6.40;2.73;;;;;;;7.62;94.07;97648.81;5094606;28;20227;-69
2021/12/15 12:49:19;;;;;;;6.23;2.97;;;;;;;7.77;94.56;97652.81;5093404;28;20198;-69
2021/12/15 13:00:37;;;;;;;6.63;3.23;;;;;;;7.49;96.22;97658.63;5092329;28;20335;-69
2021/12/15 13:03:08;;;;;;;5.50;2.83;;;;;;;7.01;98.10;97652.03;5092366;28;20674;-69
2021/12/15 13:05:42;;;;;;;9.33;4.07;;;;;;;7.10;99.50;97650.50;5092230;28;20258;-69
2021/12/15 13:08:11;;;;;;;5.83;3.43;;;;;;;7.06;99.20;97649.06;5092261;28;20203;-69
2021/12/15 13:10:59;;;;;;;7.83;3.37;;;;;;;7.26;98.99;97640.47;5093100;28;20565;-69
2021/12/15 13:13:30;;;;;;;9.07;3.97;;;;;;;7.20;99.42;97647.00;5092053;28;20223;-69
2021/12/15 13:16:02;;;;;;;11.43;4.57;;;;;;;7.23;98.92;97640.69;5089767;28;20588;-69
2021/12/15 13:18:43;;;;;;;6.23;3.23;;;;;;;7.30;98.28;97640.09;5079701;28;20200;-69
2021/12/15 13:21:12;;;;;;;8.43;4.10;;;;;;;7.07;99.27;97642.88;5078637;28;20226;-69
2021/12/15 13:23:47;;;;;;;8.17;3.13;;;;;;;7.13;99.60;97634.50;5077986;28;20207;-69
2021/12/15 13:29:22;;;;;;;6.93;4.37;;;;;;;7.61;97.60;97629.63;5078476;28;20584;-69
2021/12/15 13:31:55;;;;;;;8.50;4.60;;;;;;;7.45;97.77;97626.56;5078839;28;20231;-69
2021/12/15 13:34:41;;;;;;;7.80;3.73;;;;;;;7.54;97.01;97625.81;5077797;28;20204;-69
2021/12/15 13:37:08;;;;;;;7.90;3.30;;;;;;;7.11;97.97;97620.72;5078477;28;20199;-69
2021/12/15 13:39:44;;;;;;;6.97;3.97;;;;;;;7.54;97.68;97620.56;5079006;28;20208;-69
2021/12/15 13:42:14;;;;;;;12.17;4.17;;;;;;;7.24;98.21;97621.41;5077718;28;20231;-69
2021/12/15 13:44:44;;;;;;;7.13;3.67;;;;;;;7.30;98.01;97611.25;5077799;28;20678;-69
2021/12/15 13:47:18;;;;;;;9.17;3.97;;;;;;;7.16;98.34;97619.38;5078490;28;20223;-69
2021/12/15 13:49:46;;;;;;;8.70;4.27;;;;;;;7.13;98.44;97626.66;5078932;28;20208;-69
2021/12/15 13:52:30;;;;;;;16.40;4.13;;;;;;;7.36;98.03;97622.06;5077408;28;20227;-69
2021/12/15 13:55:14;;;;;;;5.97;2.77;;;;;;;7.19;98.68;97618.31;5077804;28;20592;-69
2021/12/15 13:57:50;;;;;;;6.43;3.57;;;;;;;7.27;98.29;97624.63;5076496;28;20789;-69
2021/12/15 14:00:25;;;;;;;6.97;3.60;;;;;;;7.27;98.22;97633.31;5078122;28;20195;-69
2021/12/15 14:03:00;;;;;;;9.30;3.43;;;;;;;7.42;97.38;97636.47;5077392;28;20223;-69
2021/12/15 14:05:31;;;;;;;8.63;3.93;;;;;;;7.12;98.22;97630.25;5077796;28;20229;-69
2021/12/15 14:08:01;;;;;;;3.17;2.23;;;;;;;7.21;97.90;97637.38;5077776;28;20215;-69
2021/12/15 14:10:55;;;;;;;8.63;4.20;;;;;;;7.41;96.76;97630.41;5077713;28;20211;-69
2021/12/15 14:13:35;;;;;;;9.90;3.63;;;;;;;7.13;98.24;97634.50;5076769;28;20495;-68
2021/12/15 14:16:03;;;;;;;8.47;4.10;;;;;;;7.10;98.20;97640.00;5077416;28;20583;-67
2021/12/15 14:18:32;;;;;;;5.43;3.03;;;;;;;7.28;97.77;97636.78;5077304;28;20370;-68
2021/12/15 14:21:01;;;;;;;7.07;4.27;;;;;;;7.24;97.61;97635.31;5077718;28;20204;-69
2021/12/15 14:23:33;;;;;;;5.97;3.63;;;;;;;7.21;97.91;97632.13;5076969;28;20640;-69
2021/12/15 14:26:03;;;;;;;13.13;4.00;;;;;;;7.24;97.14;97637.13;5077120;28;20718;-68